createdAt,value
2017-11-30T00:00:31.930Z,-0.20
2017-11-30T00:02:33.666Z,-0.20
2017-11-30T00:04:34.660Z,-0.20
2017-11-30T00:06:35.670Z,-0.20
2017-11-30T00:08:36.642Z,-0.20
2017-11-30T00:10:37.609Z,-0.20
2017-11-30T00:12:38.593Z,-0.30
2017-11-30T00:14:39.565Z,-0.30
2017-11-30T00:16:40.595Z,-0.40
2017-11-30T00:18:41.565Z,-0.40
2017-11-30T00:20:42.522Z,-0.40
2017-11-30T00:22:43.475Z,-0.40
2017-11-30T00:24:44.440Z,-0.40
2017-11-30T00:26:45.385Z,-0.40
2017-11-30T00:28:46.348Z,-0.40
2017-11-30T00:30:47.320Z,-0.40
2017-11-30T00:32:48.317Z,-0.40
2017-11-30T00:34:49.267Z,-0.40
2017-11-30T00:36:50.245Z,-0.40
2017-11-30T00:38:51.228Z,-0.40
2017-11-30T00:40:52.242Z,-0.50
2017-11-30T00:43:05.707Z,-0.40
2017-11-30T00:45:07.481Z,-0.40
2017-11-30T00:47:08.473Z,-0.40
2017-11-30T00:49:09.439Z,-0.40
2017-11-30T00:51:10.418Z,-0.30
2017-11-30T00:53:12.143Z,-0.20
2017-11-30T00:55:13.105Z,-0.20
2017-11-30T00:57:14.108Z,-0.10
2017-11-30T00:59:15.111Z,-0.20
2017-11-30T01:01:16.062Z,-0.20
2017-11-30T01:03:17.089Z,-0.20
2017-11-30T01:05:18.058Z,-0.30
2017-11-30T01:07:19.030Z,-0.20
2017-11-30T01:09:19.992Z,-0.20
2017-11-30T01:11:20.932Z,-0.20
2017-11-30T01:13:21.904Z,-0.20
2017-11-30T01:15:22.873Z,-0.20
2017-11-30T01:17:23.831Z,-0.20
2017-11-30T01:19:25.555Z,-0.20
2017-11-30T01:21:26.543Z,-0.20
2017-11-30T01:23:27.518Z,-0.10
2017-11-30T01:25:28.571Z,-0.10
2017-11-30T01:27:29.567Z,-0.10
2017-11-30T01:29:30.543Z,-0.10
2017-11-30T01:31:31.572Z,-0.10
2017-11-30T01:33:33.277Z,0.00
2017-11-30T01:35:34.356Z,-0.10
2017-11-30T01:37:35.341Z,0.00
2017-11-30T01:39:36.286Z,0.00
2017-11-30T01:41:37.269Z,0.10
2017-11-30T01:43:38.232Z,0.10
2017-11-30T01:45:39.210Z,0.10
2017-11-30T01:47:40.256Z,0.10
2017-11-30T01:49:41.224Z,0.10
2017-11-30T01:51:42.222Z,0.20
2017-11-30T01:53:43.198Z,0.20
2017-11-30T01:55:44.290Z,0.20
2017-11-30T01:57:45.419Z,0.20
2017-11-30T01:59:46.543Z,0.20
2017-11-30T02:01:47.545Z,0.30
2017-11-30T02:03:48.596Z,0.30
2017-11-30T02:05:49.907Z,0.30
2017-11-30T02:07:50.864Z,0.30
2017-11-30T02:09:52.101Z,0.30
2017-11-30T02:11:53.100Z,0.30
2017-11-30T02:13:54.077Z,0.30
2017-11-30T02:15:55.193Z,0.30
2017-11-30T02:17:56.237Z,0.30
2017-11-30T02:19:57.252Z,0.40
2017-11-30T02:21:58.237Z,0.40
2017-11-30T02:23:59.350Z,0.40
2017-11-30T02:26:00.382Z,0.40
2017-11-30T02:28:01.559Z,0.40
2017-11-30T02:30:03.442Z,0.50
2017-11-30T02:32:04.585Z,0.50
2017-11-30T02:34:05.590Z,0.50
2017-11-30T02:36:07.448Z,0.50
2017-11-30T02:38:09.267Z,0.50
2017-11-30T02:40:10.257Z,0.50
2017-11-30T02:42:11.389Z,0.50
2017-11-30T02:44:12.386Z,0.60
2017-11-30T02:46:13.554Z,0.60
2017-11-30T02:48:15.119Z,0.60
2017-11-30T02:50:16.141Z,0.60
2017-11-30T02:52:17.160Z,0.60
2017-11-30T02:54:18.206Z,0.60
2017-11-30T02:56:19.202Z,0.60
2017-11-30T02:58:20.398Z,0.60
2017-11-30T03:00:21.538Z,0.60
2017-11-30T03:02:23.670Z,0.60
2017-11-30T03:04:24.667Z,0.60
2017-11-30T03:06:25.685Z,0.60
2017-11-30T03:08:26.677Z,0.60
2017-11-30T03:10:27.699Z,0.60
2017-11-30T03:12:28.831Z,0.60
2017-11-30T03:14:29.823Z,0.60
2017-11-30T03:16:30.833Z,0.60
2017-11-30T03:18:31.942Z,0.70
2017-11-30T03:20:32.932Z,0.60
2017-11-30T03:22:33.961Z,0.60
2017-11-30T03:24:34.979Z,0.60
2017-11-30T03:26:35.945Z,0.60
2017-11-30T03:28:36.995Z,0.70
2017-11-30T03:30:37.982Z,0.70
2017-11-30T03:32:38.985Z,0.70
2017-11-30T03:34:39.981Z,0.70
2017-11-30T03:36:40.964Z,0.70
2017-11-30T03:38:41.956Z,0.70
2017-11-30T03:40:42.918Z,0.70
2017-11-30T03:42:43.957Z,0.70
2017-11-30T03:44:44.905Z,0.80
2017-11-30T03:46:46.052Z,0.80
2017-11-30T03:48:47.036Z,0.80
2017-11-30T03:50:48.021Z,0.80
2017-11-30T03:52:49.025Z,0.80
2017-11-30T03:54:50.089Z,0.80
2017-11-30T03:56:51.132Z,0.80
2017-11-30T03:58:52.150Z,0.80
2017-11-30T04:00:53.273Z,0.80
2017-11-30T04:02:54.312Z,0.80
2017-11-30T04:04:55.316Z,0.80
2017-11-30T04:06:56.337Z,0.80
2017-11-30T04:08:58.071Z,0.80
2017-11-30T04:10:59.042Z,0.80
2017-11-30T04:13:00.082Z,0.80
2017-11-30T04:15:01.057Z,0.80
2017-11-30T04:17:02.012Z,0.80
2017-11-30T04:19:03.003Z,0.80
2017-11-30T04:21:03.989Z,0.80
2017-11-30T04:23:05.028Z,0.80
2017-11-30T04:25:06.030Z,0.80
2017-11-30T04:27:07.054Z,0.80
2017-11-30T04:29:08.039Z,0.80
2017-11-30T04:31:09.032Z,0.80
2017-11-30T04:33:10.004Z,0.80
2017-11-30T04:35:11.005Z,0.80
2017-11-30T04:37:11.997Z,0.80
2017-11-30T04:39:13.016Z,0.80
2017-11-30T04:41:14.024Z,0.80
2017-11-30T04:43:15.016Z,0.80
2017-11-30T04:45:15.993Z,0.80
2017-11-30T04:47:16.952Z,0.80
2017-11-30T04:49:17.973Z,0.80
2017-11-30T04:51:18.949Z,0.80
2017-11-30T04:53:20.653Z,0.80
2017-11-30T04:55:21.678Z,0.80
2017-11-30T04:57:22.770Z,0.80
2017-11-30T04:59:24.097Z,0.80
2017-11-30T05:01:26.236Z,0.80
2017-11-30T05:03:27.231Z,0.80
2017-11-30T05:05:28.252Z,0.80
2017-11-30T05:07:29.248Z,0.80
2017-11-30T05:09:30.393Z,0.80
2017-11-30T05:11:31.543Z,0.80
2017-11-30T05:13:32.659Z,0.80
2017-11-30T05:15:33.636Z,0.80
2017-11-30T05:17:34.631Z,0.90
2017-11-30T05:19:35.609Z,0.90
2017-11-30T05:21:36.567Z,0.90
2017-11-30T05:23:37.544Z,0.90
2017-11-30T05:25:38.515Z,0.90
2017-11-30T05:27:39.545Z,0.90
2017-11-30T05:29:40.497Z,0.90
2017-11-30T05:31:41.476Z,0.90
2017-11-30T05:33:42.441Z,0.90
2017-11-30T05:35:44.194Z,0.90
2017-11-30T05:37:45.164Z,0.90
2017-11-30T05:39:46.253Z,0.90
2017-11-30T05:41:47.257Z,0.90
2017-11-30T05:43:48.248Z,1.00
2017-11-30T05:45:49.244Z,1.00
2017-11-30T05:47:50.229Z,1.00
2017-11-30T05:49:51.341Z,1.00
2017-11-30T05:51:52.368Z,1.00
2017-11-30T05:53:53.353Z,1.00
2017-11-30T05:55:54.519Z,1.00
2017-11-30T05:57:55.476Z,1.00
2017-11-30T05:59:56.464Z,1.00
2017-11-30T06:01:58.158Z,1.00
2017-11-30T06:03:59.160Z,1.00
2017-11-30T06:06:00.152Z,1.00
2017-11-30T06:08:01.140Z,1.00
2017-11-30T06:10:02.101Z,1.00
2017-11-30T06:12:03.074Z,1.10
2017-11-30T06:14:04.770Z,1.10
2017-11-30T06:16:05.745Z,1.00
2017-11-30T06:18:06.729Z,1.10
2017-11-30T06:20:07.692Z,1.10
2017-11-30T06:22:08.659Z,1.10
2017-11-30T06:24:09.660Z,1.10
2017-11-30T06:26:10.653Z,1.10
2017-11-30T06:28:11.620Z,1.10
2017-11-30T06:30:12.576Z,1.10
2017-11-30T06:32:13.552Z,1.10
2017-11-30T06:34:14.493Z,1.10
2017-11-30T06:36:15.513Z,1.10
2017-11-30T06:38:16.507Z,1.10
2017-11-30T06:40:17.499Z,1.10
2017-11-30T06:42:18.480Z,1.10
2017-11-30T06:44:19.452Z,1.10
2017-11-30T06:46:20.453Z,1.10
2017-11-30T06:48:21.417Z,1.10
2017-11-30T06:50:22.621Z,1.10
2017-11-30T06:52:23.617Z,1.10
2017-11-30T06:54:24.621Z,1.10
2017-11-30T06:56:25.692Z,1.10
2017-11-30T06:58:26.691Z,1.10
2017-11-30T07:00:27.645Z,1.10
2017-11-30T07:02:28.616Z,1.10
2017-11-30T07:04:29.601Z,1.10
2017-11-30T07:06:30.613Z,1.10
2017-11-30T07:08:31.619Z,1.10
2017-11-30T07:10:32.592Z,1.10
2017-11-30T07:12:33.553Z,1.10
2017-11-30T07:14:34.640Z,1.10
2017-11-30T07:16:35.609Z,1.10
2017-11-30T07:18:36.588Z,1.10
2017-11-30T07:20:37.551Z,1.10
2017-11-30T07:22:39.320Z,1.20
2017-11-30T07:24:40.336Z,1.10
2017-11-30T07:26:41.281Z,1.20
2017-11-30T07:28:42.330Z,1.20
2017-11-30T07:30:43.492Z,1.20
2017-11-30T07:32:44.461Z,1.20
2017-11-30T07:34:45.495Z,1.20
2017-11-30T07:36:47.183Z,1.30
2017-11-30T07:38:48.178Z,1.20
2017-11-30T07:40:49.160Z,1.30
2017-11-30T07:42:50.166Z,1.30
2017-11-30T07:44:51.147Z,1.30
2017-11-30T07:46:52.126Z,1.40
2017-11-30T07:48:53.178Z,1.30
2017-11-30T07:50:54.220Z,1.40
2017-11-30T07:52:56.008Z,1.40
2017-11-30T07:54:57.053Z,1.40
2017-11-30T07:56:58.027Z,1.40
2017-11-30T07:58:59.025Z,1.40
2017-11-30T08:01:00.010Z,1.40
2017-11-30T08:03:01.026Z,1.40
2017-11-30T08:05:02.066Z,1.40
2017-11-30T08:07:03.026Z,1.40
2017-11-30T08:09:04.041Z,1.40
2017-11-30T08:11:05.017Z,1.50
2017-11-30T08:13:06.718Z,1.50
2017-11-30T08:15:08.432Z,1.50
2017-11-30T08:17:09.425Z,1.50
2017-11-30T08:19:10.421Z,1.50
2017-11-30T08:21:11.388Z,1.50
2017-11-30T08:23:13.130Z,1.50
2017-11-30T08:25:14.129Z,1.50
2017-11-30T08:27:15.121Z,1.50
2017-11-30T08:29:16.189Z,1.50
2017-11-30T08:31:17.194Z,1.50
2017-11-30T08:33:18.898Z,1.50
2017-11-30T08:35:19.873Z,1.40
2017-11-30T08:37:20.829Z,1.50
2017-11-30T08:39:21.829Z,1.50
2017-11-30T08:41:22.846Z,1.60
2017-11-30T08:43:23.905Z,1.60
2017-11-30T08:45:24.922Z,1.70
2017-11-30T08:47:25.914Z,1.70
2017-11-30T08:49:26.964Z,1.80
2017-11-30T08:51:27.935Z,1.80
2017-11-30T08:53:28.961Z,1.80
2017-11-30T08:55:29.961Z,1.90
2017-11-30T08:57:31.671Z,2.00
2017-11-30T08:59:32.642Z,1.90
2017-11-30T09:01:33.629Z,2.00
2017-11-30T09:03:35.380Z,2.10
2017-11-30T09:05:36.364Z,2.10
2017-11-30T09:07:37.363Z,2.20
2017-11-30T09:09:38.336Z,2.20
2017-11-30T09:11:39.329Z,2.30
2017-11-30T09:13:40.308Z,2.30
2017-11-30T09:15:41.322Z,2.30
2017-11-30T09:17:42.280Z,2.30
2017-11-30T09:19:43.244Z,2.30
2017-11-30T09:21:44.233Z,2.30
2017-11-30T09:23:45.213Z,2.30
2017-11-30T09:25:46.180Z,2.40
2017-11-30T09:27:47.159Z,2.40
2017-11-30T09:29:48.125Z,2.40
2017-11-30T09:31:49.057Z,2.50
2017-11-30T09:33:50.061Z,2.60
2017-11-30T09:35:51.081Z,2.50
2017-11-30T09:37:52.068Z,2.50
2017-11-30T09:39:53.044Z,2.60
2017-11-30T09:41:54.049Z,2.60
2017-11-30T09:43:55.028Z,2.60
2017-11-30T09:45:56.016Z,2.60
2017-11-30T09:47:57.024Z,2.60
2017-11-30T09:49:58.006Z,2.50
2017-11-30T09:51:58.998Z,2.50
2017-11-30T09:53:59.962Z,2.50
2017-11-30T09:56:01.023Z,2.60
2017-11-30T09:58:01.994Z,2.50
2017-11-30T10:00:02.990Z,2.60
2017-11-30T10:02:04.035Z,2.60
2017-11-30T10:04:05.048Z,2.60
2017-11-30T10:06:06.049Z,2.60
2017-11-30T10:08:07.037Z,2.60
2017-11-30T10:10:08.089Z,2.60
2017-11-30T10:12:08.981Z,2.60
2017-11-30T10:14:09.949Z,2.70
2017-11-30T10:16:10.914Z,2.70
2017-11-30T10:18:11.861Z,2.70
2017-11-30T10:20:12.833Z,2.70
2017-11-30T10:22:14.117Z,2.80
2017-11-30T10:24:15.121Z,2.70
2017-11-30T10:26:16.106Z,2.80
2017-11-30T10:28:17.153Z,2.80
2017-11-30T10:30:18.105Z,2.80
2017-11-30T10:32:19.123Z,2.90
2017-11-30T10:34:20.864Z,2.90
2017-11-30T10:36:21.797Z,2.90
2017-11-30T10:38:22.761Z,2.90
2017-11-30T10:40:23.712Z,2.90
2017-11-30T10:42:24.741Z,3.00
2017-11-30T10:44:25.711Z,3.00
2017-11-30T10:46:26.676Z,3.00
2017-11-30T10:48:28.397Z,3.00
2017-11-30T10:50:29.399Z,3.00
2017-11-30T10:52:30.391Z,3.00
2017-11-30T10:54:31.389Z,3.00
2017-11-30T10:56:32.432Z,3.00
2017-11-30T10:58:33.446Z,3.00
2017-11-30T11:00:34.464Z,3.00
2017-11-30T11:02:35.444Z,3.00
2017-11-30T11:04:36.471Z,3.00
2017-11-30T11:06:37.460Z,3.00
2017-11-30T11:08:38.438Z,3.00
2017-11-30T11:10:39.399Z,3.00
2017-11-30T11:12:40.369Z,3.00
2017-11-30T11:14:41.339Z,3.10
2017-11-30T11:16:42.316Z,3.00
2017-11-30T11:18:43.293Z,3.00
2017-11-30T11:20:44.285Z,3.10
2017-11-30T11:22:45.248Z,3.00
2017-11-30T11:24:46.259Z,3.10
2017-11-30T11:26:47.323Z,3.10
2017-11-30T11:28:48.316Z,3.10
2017-11-30T11:30:49.292Z,3.00
2017-11-30T11:32:51.008Z,3.10
2017-11-30T11:34:51.996Z,3.10
2017-11-30T11:36:52.953Z,3.10
2017-11-30T11:38:53.922Z,3.10
2017-11-30T11:40:54.912Z,3.00
2017-11-30T11:42:55.878Z,3.00
2017-11-30T11:44:56.853Z,3.00
2017-11-30T11:46:57.804Z,3.00
2017-11-30T11:48:58.769Z,3.00
2017-11-30T11:50:59.753Z,3.00
2017-11-30T11:53:00.812Z,3.00
2017-11-30T11:55:01.827Z,3.00
2017-11-30T11:57:02.848Z,3.00
2017-11-30T11:59:03.836Z,3.00
2017-11-30T12:01:04.860Z,3.00
2017-11-30T12:03:05.859Z,3.00
2017-11-30T12:05:07.604Z,3.10
2017-11-30T12:07:08.556Z,3.00
2017-11-30T12:09:09.526Z,3.10
2017-11-30T12:11:10.544Z,3.00
2017-11-30T12:13:11.592Z,3.10
2017-11-30T12:15:12.635Z,3.00
2017-11-30T12:17:13.645Z,3.10
2017-11-30T12:19:14.654Z,3.00
2017-11-30T12:21:16.340Z,3.00
2017-11-30T12:23:17.312Z,3.00
2017-11-30T12:25:18.273Z,2.90
2017-11-30T12:27:19.224Z,2.90
2017-11-30T12:29:20.229Z,2.90
2017-11-30T12:31:21.929Z,2.80
2017-11-30T12:33:22.891Z,2.80
2017-11-30T12:35:23.854Z,2.80
2017-11-30T12:37:24.854Z,2.80
2017-11-30T12:39:25.876Z,2.80
2017-11-30T12:41:26.911Z,2.80
2017-11-30T12:43:27.890Z,2.80
2017-11-30T12:45:28.844Z,2.80
2017-11-30T12:47:29.811Z,2.80
2017-11-30T12:49:30.774Z,2.70
2017-11-30T12:51:31.773Z,2.80
2017-11-30T12:53:32.788Z,2.70
2017-11-30T12:55:33.747Z,2.70
2017-11-30T12:57:34.778Z,2.70
2017-11-30T12:59:35.766Z,2.70
2017-11-30T13:01:37.454Z,2.70
2017-11-30T13:03:38.419Z,2.70
2017-11-30T13:05:39.378Z,2.70
2017-11-30T13:07:40.562Z,2.80
2017-11-30T13:09:41.548Z,2.70
2017-11-30T13:11:42.588Z,2.80
2017-11-30T13:13:43.737Z,2.80
2017-11-30T13:15:44.751Z,2.70
2017-11-30T13:17:45.729Z,2.70
2017-11-30T13:19:46.675Z,2.70
2017-11-30T13:21:47.695Z,2.80
2017-11-30T13:23:48.691Z,2.70
2017-11-30T13:25:49.694Z,2.80
2017-11-30T13:27:50.651Z,2.70
2017-11-30T13:29:51.623Z,2.70
2017-11-30T13:31:52.567Z,2.70
2017-11-30T13:33:53.519Z,2.80
2017-11-30T13:35:54.510Z,2.80
2017-11-30T13:37:55.567Z,2.80
2017-11-30T13:39:56.568Z,2.70
2017-11-30T13:41:57.527Z,2.70
2017-11-30T13:43:59.280Z,2.80
2017-11-30T13:46:00.255Z,2.80
2017-11-30T13:48:01.257Z,2.80
2017-11-30T13:50:02.351Z,2.80
2017-11-30T13:52:03.369Z,2.80
2017-11-30T13:54:04.365Z,2.80
2017-11-30T13:56:05.331Z,2.80
2017-11-30T13:58:18.582Z,2.80
2017-11-30T14:00:19.567Z,2.80
2017-11-30T14:02:20.527Z,2.80
2017-11-30T14:04:21.567Z,2.80
2017-11-30T14:06:22.551Z,2.70
2017-11-30T14:08:23.544Z,2.80
2017-11-30T14:10:25.289Z,2.80
2017-11-30T14:12:26.276Z,2.70
2017-11-30T14:14:27.280Z,2.80
2017-11-30T14:16:28.365Z,2.80
2017-11-30T14:18:29.329Z,2.80
2017-11-30T14:20:30.299Z,2.70
2017-11-30T14:22:31.255Z,2.70
2017-11-30T14:24:32.235Z,2.70
2017-11-30T14:26:33.194Z,2.70
2017-11-30T14:28:34.937Z,2.70
2017-11-30T14:30:36.675Z,2.70
2017-11-30T14:32:37.640Z,2.70
2017-11-30T14:34:39.371Z,2.70
2017-11-30T14:36:40.324Z,2.70
2017-11-30T14:38:41.388Z,2.70
2017-11-30T14:40:43.119Z,2.70
2017-11-30T14:42:44.127Z,2.70
2017-11-30T14:44:45.186Z,2.70
2017-11-30T14:46:46.136Z,2.70
2017-11-30T14:48:47.132Z,2.70
2017-11-30T14:50:48.101Z,2.70
2017-11-30T14:52:49.066Z,2.70
2017-11-30T14:54:50.072Z,2.70
2017-11-30T14:56:51.078Z,2.70
2017-11-30T14:58:52.061Z,2.70
2017-11-30T15:00:53.064Z,2.70
2017-11-30T15:02:54.010Z,2.70
2017-11-30T15:04:54.960Z,2.70
2017-11-30T15:06:55.915Z,2.70
2017-11-30T15:08:56.855Z,2.70
2017-11-30T15:10:57.851Z,2.60
2017-11-30T15:12:58.872Z,2.60
2017-11-30T15:14:59.859Z,2.70
2017-11-30T15:17:00.819Z,2.60
2017-11-30T15:19:01.822Z,2.60
2017-11-30T15:21:02.779Z,2.60
2017-11-30T15:23:03.804Z,2.70
2017-11-30T15:25:08.155Z,2.60
2017-11-30T15:27:11.226Z,2.60
2017-11-30T15:29:12.606Z,2.70
2017-11-30T15:31:14.343Z,2.60
2017-11-30T15:33:16.189Z,2.60
2017-11-30T15:35:17.961Z,2.70
2017-11-30T15:37:18.998Z,2.60
2017-11-30T15:39:20.017Z,2.70
2017-11-30T15:41:21.067Z,2.60
2017-11-30T15:43:22.077Z,2.60
2017-11-30T15:45:23.067Z,2.60
2017-11-30T15:47:24.023Z,2.60
2017-11-30T15:49:25.763Z,2.70
2017-11-30T15:51:26.737Z,2.60
2017-11-30T15:53:28.454Z,2.60
2017-11-30T15:55:30.481Z,2.60
2017-11-30T15:57:34.139Z,2.60
2017-11-30T15:59:35.118Z,2.60
2017-11-30T16:01:36.101Z,2.60
2017-11-30T16:03:37.763Z,2.60
2017-11-30T16:05:38.798Z,2.60
2017-11-30T16:07:39.711Z,2.60
2017-11-30T16:09:41.319Z,2.60
2017-11-30T16:11:42.273Z,2.60
2017-11-30T16:13:43.203Z,2.60
2017-11-30T16:15:44.163Z,2.60
2017-11-30T16:17:45.123Z,2.60
2017-11-30T16:19:46.078Z,2.60
2017-11-30T16:21:47.084Z,2.60
2017-11-30T16:23:48.097Z,2.60
2017-11-30T16:25:49.066Z,2.60
2017-11-30T16:27:50.838Z,2.50
2017-11-30T16:29:52.558Z,2.50
2017-11-30T16:31:53.555Z,2.50
2017-11-30T16:33:54.519Z,2.50
2017-11-30T16:35:55.516Z,2.50
2017-11-30T16:37:56.493Z,2.50
2017-11-30T16:39:58.208Z,2.40
2017-11-30T16:41:59.198Z,2.50
2017-11-30T16:44:00.892Z,2.50
2017-11-30T16:46:01.863Z,2.40
2017-11-30T16:48:02.867Z,2.40
2017-11-30T16:50:03.889Z,2.50
2017-11-30T16:52:05.615Z,2.40
2017-11-30T16:54:06.563Z,2.40
2017-11-30T16:56:13.652Z,2.50
2017-11-30T16:58:14.652Z,2.40
2017-11-30T17:00:15.613Z,2.50
2017-11-30T17:02:16.599Z,2.40
2017-11-30T17:04:17.603Z,2.40
2017-11-30T17:06:18.593Z,2.40
2017-11-30T17:08:19.590Z,2.50
2017-11-30T17:17:47.369Z,2.50
2017-11-30T17:19:48.349Z,2.50
2017-11-30T17:21:49.377Z,2.50
2017-11-30T17:23:50.351Z,2.40
2017-11-30T17:25:51.317Z,2.50
2017-11-30T17:27:53.008Z,2.40
2017-11-30T17:29:53.979Z,2.40
2017-11-30T17:31:54.934Z,2.40
2017-11-30T17:33:55.924Z,2.50
2017-11-30T17:35:56.883Z,2.40
2017-11-30T17:37:57.860Z,2.40
2017-11-30T17:39:58.830Z,2.50
2017-11-30T17:41:59.816Z,2.40
2017-11-30T17:44:00.801Z,2.40
2017-11-30T17:46:01.756Z,2.40
2017-11-30T17:48:02.760Z,2.40
2017-11-30T17:50:03.720Z,2.40
2017-11-30T17:52:04.711Z,2.40
2017-11-30T17:54:06.466Z,2.40
2017-11-30T17:56:07.483Z,2.40
2017-11-30T17:58:08.477Z,2.40
2017-11-30T18:00:10.177Z,2.40
2017-11-30T18:02:11.136Z,2.40
2017-11-30T18:04:12.099Z,2.40
2017-11-30T18:06:13.076Z,2.30
2017-11-30T18:08:14.056Z,2.40
2017-11-30T18:10:15.308Z,2.40
2017-11-30T18:12:16.302Z,2.30
2017-11-30T18:14:17.312Z,2.30
2017-11-30T18:16:19.255Z,2.30
2017-11-30T18:18:21.012Z,2.30
2017-11-30T18:20:22.823Z,2.30
2017-11-30T18:22:23.806Z,2.30
2017-11-30T18:24:24.815Z,2.30
2017-11-30T18:26:25.758Z,2.30
2017-11-30T18:28:26.781Z,2.30
2017-11-30T18:30:28.088Z,2.30
2017-11-30T18:32:31.249Z,2.20
2017-11-30T18:34:32.268Z,2.30
2017-11-30T18:36:33.265Z,2.20
2017-11-30T18:38:34.254Z,2.20
2017-11-30T18:40:35.975Z,2.20
2017-11-30T18:42:36.927Z,2.20
2017-11-30T18:44:38.748Z,2.20
2017-11-30T18:46:39.747Z,2.20
2017-11-30T18:48:40.736Z,2.20
2017-11-30T18:50:41.707Z,2.10
2017-11-30T18:52:42.716Z,2.10
2017-11-30T18:54:44.428Z,2.10
2017-11-30T18:56:45.451Z,2.10
2017-11-30T18:58:46.441Z,2.10
2017-11-30T19:00:47.416Z,2.10
2017-11-30T19:02:53.913Z,2.10
2017-11-30T19:04:54.933Z,2.10
2017-11-30T19:06:56.664Z,2.10
2017-11-30T19:08:57.675Z,2.10
2017-11-30T19:10:58.673Z,2.10
2017-11-30T19:12:59.666Z,2.10
2017-11-30T19:15:00.627Z,2.10
2017-11-30T19:17:02.378Z,2.10
2017-11-30T19:19:03.368Z,2.10
2017-11-30T19:21:04.531Z,2.10
2017-11-30T19:23:10.941Z,2.10
2017-11-30T19:25:11.960Z,2.10
2017-11-30T19:27:13.709Z,2.10
2017-11-30T19:29:16.316Z,2.10
2017-11-30T19:31:18.059Z,2.10
2017-11-30T19:33:19.091Z,2.10
2017-11-30T19:35:20.064Z,2.20
2017-11-30T19:37:21.110Z,2.20
2017-11-30T19:39:22.122Z,2.10
2017-11-30T19:41:23.084Z,2.20
2017-11-30T19:43:24.056Z,2.20
2017-11-30T19:45:25.082Z,2.20
2017-11-30T19:47:26.088Z,2.20
2017-11-30T19:49:27.101Z,2.20
2017-11-30T19:51:28.895Z,2.20
2017-11-30T19:53:31.054Z,2.20
2017-11-30T19:55:32.129Z,2.20
2017-11-30T19:57:33.225Z,2.20
2017-11-30T19:59:35.047Z,2.20
2017-11-30T20:01:36.053Z,2.20
2017-11-30T20:03:37.061Z,2.20
2017-11-30T20:05:38.059Z,2.10
2017-11-30T20:07:39.091Z,2.10
2017-11-30T20:09:40.823Z,2.20
2017-11-30T20:11:41.820Z,2.20
2017-11-30T20:13:43.577Z,2.20
2017-11-30T20:15:44.765Z,2.20
2017-11-30T20:17:45.809Z,2.20
2017-11-30T20:19:46.826Z,2.20
2017-11-30T20:21:48.531Z,2.30
2017-11-30T20:23:49.539Z,2.30
2017-11-30T20:25:50.537Z,2.30
2017-11-30T20:27:51.529Z,2.30
2017-11-30T20:29:53.322Z,2.30
2017-11-30T20:31:54.298Z,2.30
2017-11-30T20:33:55.259Z,2.30
2017-11-30T20:35:56.276Z,2.30
2017-11-30T20:38:07.668Z,2.30
2017-11-30T20:40:08.704Z,2.30
2017-11-30T20:42:09.673Z,2.30
2017-11-30T20:44:10.652Z,2.30
2017-11-30T20:46:12.438Z,2.30
2017-11-30T20:48:13.413Z,2.30
2017-11-30T20:50:14.406Z,2.30
2017-11-30T20:52:15.410Z,2.30
2017-11-30T20:54:17.284Z,2.40
2017-11-30T20:56:18.336Z,2.40
2017-11-30T20:58:19.310Z,2.30
2017-11-30T21:00:20.442Z,2.30
2017-11-30T21:02:21.443Z,2.30
2017-11-30T21:04:22.447Z,2.30
2017-11-30T21:06:23.431Z,2.30
2017-11-30T21:08:24.435Z,2.30
2017-11-30T21:10:25.444Z,2.30
2017-11-30T21:12:26.498Z,2.30
2017-11-30T21:14:27.456Z,2.30
2017-11-30T21:16:28.444Z,2.30
2017-11-30T21:18:30.143Z,2.30
2017-11-30T21:20:31.124Z,2.30
2017-11-30T21:22:32.145Z,2.30
2017-11-30T21:24:33.135Z,2.30
2017-11-30T21:26:34.861Z,2.20
2017-11-30T21:28:35.855Z,2.20
2017-11-30T21:30:37.596Z,2.30
2017-11-30T21:32:38.596Z,2.30
2017-11-30T21:34:39.800Z,2.30
2017-11-30T21:36:40.797Z,2.20
2017-11-30T21:38:41.786Z,2.20
2017-11-30T21:40:42.788Z,2.20
2017-11-30T21:42:43.780Z,2.30
2017-11-30T21:44:44.771Z,2.30
2017-11-30T21:46:45.800Z,2.30
2017-11-30T21:48:46.811Z,2.30
2017-11-30T21:50:47.768Z,2.30
2017-11-30T21:52:48.782Z,2.30
2017-11-30T21:54:49.772Z,2.30
2017-11-30T21:56:50.793Z,2.30
2017-11-30T21:58:51.797Z,2.30
2017-11-30T22:00:52.810Z,2.30
2017-11-30T22:02:54.569Z,2.30
2017-11-30T22:04:55.555Z,2.30
2017-11-30T22:06:56.562Z,2.30
2017-11-30T22:08:57.557Z,2.30
2017-11-30T22:10:58.519Z,2.30
2017-11-30T22:12:59.542Z,2.30
2017-11-30T22:15:00.590Z,2.30
2017-11-30T22:17:01.563Z,2.30
2017-11-30T22:19:02.569Z,2.30
2017-11-30T22:21:03.583Z,2.30
2017-11-30T22:23:04.656Z,2.20
2017-11-30T22:25:06.383Z,2.30
2017-11-30T22:27:07.366Z,2.30
2017-11-30T22:29:09.098Z,2.30
2017-11-30T22:31:10.077Z,2.30
2017-11-30T22:33:11.784Z,2.30
2017-11-30T22:35:12.803Z,2.30
2017-11-30T22:37:13.833Z,2.30
2017-11-30T22:39:15.595Z,2.30
2017-11-30T22:41:16.575Z,2.30
2017-11-30T22:43:17.557Z,2.30
2017-11-30T22:45:18.620Z,2.30
2017-11-30T22:47:19.606Z,2.30
2017-11-30T22:49:20.610Z,2.40
2017-11-30T22:51:21.626Z,2.40
2017-11-30T22:53:22.659Z,2.40
2017-11-30T22:55:23.644Z,2.40
2017-11-30T22:57:24.654Z,2.30
2017-11-30T22:59:25.647Z,2.40
2017-11-30T23:01:26.716Z,2.40
2017-11-30T23:03:28.470Z,2.40
2017-11-30T23:05:30.170Z,2.40
2017-11-30T23:07:31.160Z,2.40
2017-11-30T23:09:32.216Z,2.30
2017-11-30T23:11:33.215Z,2.40
2017-11-30T23:13:34.203Z,2.30
2017-11-30T23:15:35.230Z,2.30
2017-11-30T23:17:36.245Z,2.40
2017-11-30T23:19:37.236Z,2.40
2017-11-30T23:21:38.231Z,2.30
2017-11-30T23:23:39.200Z,2.30
2017-11-30T23:25:40.194Z,2.30
2017-11-30T23:27:41.156Z,2.30
2017-11-30T23:29:42.199Z,2.30
2017-11-30T23:31:43.218Z,2.30
2017-11-30T23:33:44.253Z,2.30
2017-11-30T23:35:45.229Z,2.30
2017-11-30T23:37:46.221Z,2.30
2017-11-30T23:39:47.209Z,2.30
2017-11-30T23:41:48.160Z,2.30
2017-11-30T23:43:49.131Z,2.30
2017-11-30T23:45:50.127Z,2.30
2017-11-30T23:47:51.316Z,2.30
2017-11-30T23:49:52.347Z,2.30
2017-11-30T23:51:53.379Z,2.30
2017-11-30T23:53:54.368Z,2.20
2017-11-30T23:55:55.464Z,2.20
2017-11-30T23:57:56.485Z,2.20
2017-11-30T23:59:57.497Z,2.20
